Latest Coastal Weather Observations for Kiama

IDN60701

Issued at 6:51 am EST Monday 1 June 2020 (issued every 10 minutes, with the page automatically refreshed every 10 minutes)

About coastal observations | Map of coastal stations | Coastal observations for NSW | Marine services | Other Formats
Station Details ID: 068242 Name: KIAMA (BOMBO HEADLAND) Lat: -34.65 Lon: 150.86 Height: 15.5 m
Data from the previous 72 hours. | See also: Recent months at Kiama
Date/Time
EST
Wind Sea
Height
m
Swell Vis
km
Cloud Weather Temp
°C
Press
hPa
Rain since
9am
mm
Dir  Spd
kts
Gust
kts
Height
m
Period
s
Dir
01/06:30am SSW 1 2 - - - - - - - 12.2 - 0.0
01/06:00am CALM 0 0 - - - - - - - 12.3 - 0.0
01/05:30am NNW 1 2 - - - - - - - 13.1 - 0.0
01/05:00am NW 4 5 - - - - - - - 13.2 - 0.0
01/04:30am N 2 4 - - - - - - - 12.8 - 0.0
01/04:00am N 1 1 - - - - - - - 13.6 - 0.0
01/03:30am WSW 2 4 - - - - - - - 13.9 - 0.0
01/03:00am NNW 3 4 - - - - - - - 14.7 - 0.0
01/02:30am NNW 4 5 - - - - - - - 14.5 - 0.0
01/02:00am NW 5 6 - - - - - - - 14.6 - 0.0
01/01:30am NW 6 7 - - - - - - - 15.2 - 0.0
01/01:00am WNW 5 7 - - - - - - - 15.1 - 0.0
01/12:30am NW 7 10 - - - - - - - 15.4 - 0.0
01/12:00am WNW 7 8 - - - - - - - 15.0 - 0.0
 
Date/Time
EST
Wind Sea
Height
m
Swell Vis
km
Cloud Weather Temp
°C
Press
hPa
Rain since
9am
mm
Dir  Spd
kts
Gust
kts
Height
m
Period
s
Dir
31/11:30pm WNW 7 8 - - - - - - - 15.4 - 0.0
31/11:00pm W 6 8 - - - - - - - 15.1 - 0.0
31/10:30pm WNW 7 9 - - - - - - - 15.3 - 0.0
31/10:00pm WNW 6 8 - - - - - - - 14.8 - 0.0
31/09:30pm W 5 7 - - - - - - - 14.7 - 0.0
31/09:00pm WSW 5 7 - - - - - - - 14.6 - 0.0
31/08:30pm WSW 3 4 - - - - - - - 15.2 - 0.0
31/08:00pm WNW 2 4 - - - - - - - 15.6 - 0.0
31/07:30pm W 3 4 - - - - - - - 15.3 - 0.0
31/07:00pm WNW 3 5 - - - - - - - 15.6 - 0.0
31/06:30pm W 4 5 - - - - - - - 15.7 - 0.0
31/06:00pm W 3 4 - - - - - - - 16.1 - 0.0
31/05:30pm NW 3 5 - - - - - - - 16.9 - 0.0
31/05:00pm N 8 13 - - - - - - - 18.3 - 0.0
31/04:30pm N 11 15 - - - - - - - 18.5 - 0.0
31/04:00pm N 14 18 - - - - - - - 18.7 - 0.0
31/03:30pm N 13 18 - - - - - - - 19.1 - 0.0
31/03:00pm N 10 15 - - - - - - - 19.7 - 0.0
31/02:30pm NNE 9 13 - - - - - - - 19.6 - 0.0
31/02:00pm NNE 7 13 - - - - - - - 19.5 - 0.0
31/01:30pm N 7 9 - - - - - - - 19.3 - 0.0
31/01:00pm N 7 12 - - - - - - - 19.5 - 0.0
31/12:30pm N 6 11 - - - - - - - 18.9 - 0.0
31/12:00pm NW 6 10 - - - - - - - 17.3 - 0.0
31/11:30am NNE 2 3 - - - - - - - 17.8 - 0.0
31/11:00am S 3 5 - - - - - - - 17.3 - 0.0
31/10:30am SE 3 4 - - - - - - - 16.9 - 0.0
31/10:00am SE 1 2 - - - - - - - 16.2 - 0.0
31/09:30am SW 1 2 - - - - - - - 15.7 - 0.0
31/09:00am NNW 3 5 - - - - - - - 15.3 - 0.0
31/08:30am WNW 6 8 - - - - - - - 14.3 - 0.0
31/08:00am WNW 4 7 - - - - - - - 13.6 - 0.0
31/07:30am WNW 4 6 - - - - - - - 13.5 - 0.0
31/07:00am WNW 7 8 - - - - - - - 13.3 - 0.0
31/06:30am NW 1 3 - - - - - - - 13.2 - 0.0
31/06:00am W 3 4 - - - - - - - 13.4 - 0.0
31/05:30am NW 4 6 - - - - - - - 14.1 - 0.0
31/05:00am NW 4 5 - - - - - - - 14.7 - 0.0
31/04:30am NW 4 6 - - - - - - - 15.1 - 0.0
31/04:00am W 1 4 - - - - - - - 15.2 - 0.0
31/03:30am N 3 5 - - - - - - - 15.8 - 0.0
31/03:00am NNW 4 6 - - - - - - - 15.5 - 0.0
31/02:30am NW 5 9 - - - - - - - 15.1 - 0.0
31/02:00am NW 7 10 - - - - - - - 14.7 - 0.0
31/01:30am NW 8 12 - - - - - - - 14.8 - 0.0
31/01:00am NW 8 13 - - - - - - - 14.7 - 0.0
31/12:30am NW 6 9 - - - - - - - 14.5 - 0.0
31/12:00am NNW 4 6 - - - - - - - 14.5 - 0.0
 
Date/Time
EST
Wind Sea
Height
m
Swell Vis
km
Cloud Weather Temp
°C
Press
hPa
Rain since
9am
mm
Dir  Spd
kts
Gust
kts
Height
m
Period
s
Dir
30/11:30pm NW 6 9 - - - - - - - 15.0 - 0.0
30/11:00pm NW 7 9 - - - - - - - 14.8 - 0.0
30/10:30pm NW 8 12 - - - - - - - 15.2 - 0.0
30/10:00pm WNW 8 11 - - - - - - - 15.1 - 0.0
30/09:30pm NW 5 10 - - - - - - - 14.9 - 0.0
30/09:00pm NW 6 7 - - - - - - - 15.2 - 0.0
30/08:30pm NW 7 10 - - - - - - - 15.6 - 0.0
30/08:00pm NW 7 10 - - - - - - - 15.9 - 0.0
30/07:30pm NW 5 7 - - - - - - - 15.9 - 0.0
30/07:00pm NNW 5 11 - - - - - - - 16.5 - 0.0
30/06:30pm N 12 16 - - - - - - - 17.2 - 0.0
30/06:00pm N 13 19 - - - - - - - 17.6 - 0.0
30/05:30pm N 13 19 - - - - - - - 17.9 - 0.0
30/05:00pm N 13 17 - - - - - - - 17.9 - 0.0
30/04:30pm NNE 15 21 - - - - - - - 18.2 - 0.0
30/04:00pm N 14 20 - - - - - - - 18.5 - 0.0
30/03:30pm N 13 19 - - - - - - - 18.8 - 0.0
30/03:00pm N 14 19 - - - - - - - 19.0 - 0.0
30/02:30pm N 12 16 - - - - - - - 19.5 - 0.0
30/02:00pm N 10 15 - - - - - - - 20.0 - 0.0
30/01:30pm N 10 15 - - - - - - - 20.1 - 0.0
30/01:00pm N 10 16 - - - - - - - 19.9 - 0.0
30/12:30pm NNW 8 13 - - - - - - - 20.1 - 0.0
30/12:00pm NNW 9 13 - - - - - - - 20.0 - 0.0
30/11:30am NNW 8 14 - - - - - - - 20.1 - 0.0
30/11:00am NNW 9 14 - - - - - - - 19.6 - 0.0
30/10:30am NW 9 13 - - - - - - - 19.2 - 0.0
30/10:00am NNW 8 12 - - - - - - - 18.4 - 0.0
30/09:30am NNW 6 10 - - - - - - - 17.9 - 0.0
30/09:00am NW 4 7 - - - - - - - 16.8 - 0.0
30/08:30am NW 4 7 - - - - - - - 15.9 - 0.0
30/08:00am WNW 5 7 - - - - - - - 14.8 - 0.0
30/07:30am WNW 6 7 - - - - - - - 14.0 - 0.0
30/07:00am WNW 7 8 - - - - - - - 13.9 - 0.0
30/06:30am WNW 6 7 - - - - - - - 14.4 - 0.0
30/06:00am WNW 6 7 - - - - - - - 14.3 - 0.0
30/05:30am W 7 7 - - - - - - - 14.0 - 0.0
30/05:00am W 6 7 - - - - - - - 13.9 - 0.0
30/04:30am W 6 7 - - - - - - - 13.9 - 0.0
30/04:00am W 6 7 - - - - - - - 13.4 - 0.0
30/03:30am W 7 8 - - - - - - - 13.4 - 0.0
30/03:00am W 5 7 - - - - - - - 13.6 - 0.0
30/02:30am W 6 6 - - - - - - - 13.6 - 0.0
30/02:00am W 6 6 - - - - - - - 14.0 - 0.0
30/01:30am W 6 7 - - - - - - - 13.9 - 0.0
30/01:00am W 5 7 - - - - - - - 13.5 - 0.0
30/12:30am W 5 7 - - - - - - - 13.5 - 0.0
30/12:00am W 5 6 - - - - - - - 13.6 - 0.0
 
Date/Time
EST
Wind Sea
Height
m
Swell Vis
km
Cloud Weather Temp
°C
Press
hPa
Rain since
9am
mm
Dir  Spd
kts
Gust
kts
Height
m
Period
s
Dir
29/11:30pm W 6 7 - - - - - - - 13.9 - 0.0
29/11:00pm W 5 6 - - - - - - - 13.8 - 0.0
29/10:30pm W 5 7 - - - - - - - 14.2 - 0.0
29/10:00pm W 5 6 - - - - - - - 14.4 - 0.0
29/09:30pm W 6 7 - - - - - - - 14.3 - 0.0
29/09:00pm W 5 7 - - - - - - - 14.6 - 0.0
29/08:30pm W 5 6 - - - - - - - 14.9 - 0.0
29/08:00pm W 5 7 - - - - - - - 14.5 - 0.0
29/07:30pm W 5 7 - - - - - - - 14.6 - 0.0
29/07:00pm W 5 6 - - - - - - - 14.7 - 0.0
29/06:30pm W 4 6 - - - - - - - 15.1 - 0.0
29/06:00pm WSW 4 4 - - - - - - - 15.4 - 0.0
29/05:30pm SW 3 3 - - - - - - - 15.8 - 0.0
29/05:00pm SSW 3 4 - - - - - - - 16.7 - 0.0
29/04:30pm S 6 8 - - - - - - - 17.2 - 0.0
29/04:00pm SSE 8 11 - - - - - - - 17.6 - 0.0
29/03:30pm SSE 8 10 - - - - - - - 17.5 - 0.0
29/03:00pm SSE 8 11 - - - - - - - 17.8 - 0.0
29/02:30pm SSE 9 12 - - - - - - - 17.9 - 0.0
29/02:00pm SSE 8 12 - - - - - - - 18.0 - 0.0
29/01:30pm SSE 11 13 - - - - - - - 17.8 - 0.0
29/01:00pm S 12 15 - - - - - - - 17.6 - 0.0
29/12:30pm S 12 15 - - - - - - - 17.7 - 0.0
29/12:00pm S 12 18 - - - - - - - 17.3 - 0.0
29/11:30am S 13 18 - - - - - - - 17.6 - 0.0
29/11:00am S 14 18 - - - - - - - 17.4 - 0.0
29/10:30am S 11 13 - - - - - - - 16.9 - 0.0
29/10:00am SSW 12 14 - - - - - - - 16.7 - 0.0
29/09:30am SSW 9 12 - - - - - - - 16.6 - 0.0
29/09:00am SSW 9 12 - - - - - - - 16.4 - 0.6
29/08:30am WSW 4 6 - - - - - - - 15.5 - 0.6
29/08:00am SW 5 7 - - - - - - - 15.4 - 0.6
29/07:30am SW 5 8 - - - - - - - 15.2 - 0.6
29/07:00am SSW 9 12 - - - - - - - 15.3 - 0.6

Other formats

Comma delimited format used in spreadsheet applications
http://www.bom.gov.au/fwo/IDN60701/IDN60701.95749.axf

JavaScript Object Notation format (JSON) in row-major order
http://www.bom.gov.au/fwo/IDN60701/IDN60701.95749.json

Data quality

Most of these data are generated automatically and are frequently updated. Quality checks on data are not normally performed. It is possible for incorrect values to appear. Refer to information at About Latest Weather Observations and please check the disclaimer before using these data.